createdAt,value
2022-08-22T00:00:11.497Z,86.49
2022-08-22T00:01:11.387Z,86.89
2022-08-22T00:02:11.445Z,86.49
2022-08-22T00:02:41.709Z,77.28
2022-08-22T00:02:42.146Z,78.96
2022-08-22T00:02:48.064Z,78.96
2022-08-22T00:02:57.069Z,83.11
2022-08-22T00:02:59.714Z,78.73
2022-08-22T00:03:01.920Z,83.95
2022-08-22T00:03:10.387Z,84.53
2022-08-22T00:03:10.965Z,86.95
2022-08-22T00:04:12.440Z,86.79
2022-08-22T00:05:11.341Z,86.93
2022-08-22T00:06:11.334Z,87.23
2022-08-22T00:07:11.331Z,87.70
2022-08-22T00:08:11.317Z,87.13
2022-08-22T00:09:11.375Z,87.63
2022-08-22T00:10:11.291Z,88.24
2022-08-22T00:11:11.283Z,87.84
2022-08-22T00:12:11.252Z,87.94
2022-08-22T00:13:11.260Z,87.54
2022-08-22T00:14:11.361Z,87.54
2022-08-22T00:15:16.793Z,87.34
2022-08-22T00:16:12.234Z,87.63
2022-08-22T00:17:11.229Z,87.63
2022-08-22T00:18:11.191Z,87.54
2022-08-22T00:19:11.196Z,87.74
2022-08-22T00:20:11.168Z,87.98
2022-08-22T00:21:11.150Z,88.18
2022-08-22T00:22:11.134Z,88.59
2022-08-22T00:23:11.121Z,88.65
2022-08-22T00:24:11.116Z,88.04
2022-08-22T00:25:24.664Z,88.89
2022-08-22T00:26:12.088Z,88.18
2022-08-22T00:27:11.079Z,87.88
2022-08-22T00:28:11.076Z,88.28
2022-08-22T00:29:11.058Z,87.88
2022-08-22T00:30:11.069Z,87.88
2022-08-22T00:31:11.037Z,87.78
2022-08-22T00:32:11.024Z,87.78
2022-08-22T00:33:11.016Z,88.08
2022-08-22T00:34:11.033Z,88.48
2022-08-22T00:35:11.024Z,88.48
2022-08-22T00:36:10.981Z,88.59
2022-08-22T00:37:10.964Z,88.59
2022-08-22T00:38:10.958Z,88.68
2022-08-22T00:39:10.937Z,88.79
2022-08-22T00:40:10.969Z,88.79
2022-08-22T00:41:10.916Z,88.73
2022-08-22T00:42:10.908Z,88.48
2022-08-22T00:43:10.896Z,88.28
2022-08-22T00:44:10.882Z,87.92
2022-08-22T00:45:10.884Z,87.78
2022-08-22T00:46:10.878Z,87.78
2022-08-22T00:47:10.854Z,87.88
2022-08-22T00:48:10.843Z,88.43
2022-08-22T00:49:10.829Z,88.39
2022-08-22T00:50:10.825Z,88.12
2022-08-22T00:51:10.816Z,88.12
2022-08-22T00:52:10.812Z,88.43
2022-08-22T00:53:10.790Z,88.02
2022-08-22T00:54:17.456Z,88.43
2022-08-22T00:55:11.777Z,87.41
2022-08-22T00:56:10.750Z,87.72
2022-08-22T00:57:10.749Z,87.72
2022-08-22T00:58:10.720Z,87.41
2022-08-22T00:59:23.761Z,87.82
2022-08-22T01:00:11.695Z,88.43
2022-08-22T01:01:10.756Z,88.43
2022-08-22T01:02:10.689Z,89.03
2022-08-22T01:03:10.678Z,88.83
2022-08-22T01:04:10.657Z,88.53
2022-08-22T01:05:10.638Z,88.73
2022-08-22T01:06:10.648Z,88.12
2022-08-22T01:07:10.627Z,87.62
2022-08-22T01:08:10.620Z,88.02
2022-08-22T01:09:10.604Z,87.72
2022-08-22T01:10:10.587Z,87.41
2022-08-22T01:11:10.588Z,87.82
2022-08-22T01:12:10.564Z,87.01
2022-08-22T01:13:10.551Z,87.62
2022-08-22T01:14:10.546Z,88.53
2022-08-22T01:15:10.525Z,89.13
2022-08-22T01:16:10.522Z,88.63
2022-08-22T01:17:10.519Z,88.83
2022-08-22T01:18:10.503Z,88.63
2022-08-22T01:19:10.490Z,88.43
2022-08-22T01:20:10.468Z,88.73
2022-08-22T01:21:10.458Z,89.23
2022-08-22T01:22:10.468Z,89.28
2022-08-22T01:23:10.435Z,88.73
2022-08-22T01:24:10.425Z,88.26
2022-08-22T01:25:10.411Z,88.12
2022-08-22T01:26:10.404Z,89.34
2022-08-22T01:27:10.713Z,89.13
2022-08-22T01:28:10.377Z,89.03
2022-08-22T01:29:10.621Z,89.03
2022-08-22T01:30:10.360Z,89.13
2022-08-22T01:31:10.346Z,88.73
2022-08-22T01:32:10.348Z,89.13
2022-08-22T01:33:10.319Z,88.63
2022-08-22T01:34:12.761Z,89.13
2022-08-22T01:35:10.301Z,88.97
2022-08-22T01:36:10.282Z,88.87
2022-08-22T01:37:10.298Z,88.97
2022-08-22T01:38:10.268Z,89.17
2022-08-22T01:39:10.254Z,89.28
2022-08-22T01:40:10.368Z,89.28
2022-08-22T01:41:10.468Z,90.19
2022-08-22T01:42:10.252Z,89.78
2022-08-22T01:43:10.203Z,89.88
2022-08-22T01:44:10.199Z,89.58
2022-08-22T01:45:10.184Z,89.28
2022-08-22T01:46:10.184Z,88.97
2022-08-22T01:47:10.168Z,88.87
2022-08-22T01:48:10.164Z,90.39
2022-08-22T01:49:10.141Z,89.58
2022-08-22T01:50:10.126Z,89.98
2022-08-22T01:51:10.120Z,89.88
2022-08-22T01:52:10.103Z,90.08
2022-08-22T01:53:10.111Z,89.88
2022-08-22T01:54:10.083Z,90.08
2022-08-22T01:55:10.068Z,89.98
2022-08-22T01:56:10.058Z,89.48
2022-08-22T01:57:10.054Z,89.68
2022-08-22T01:58:10.057Z,89.98
2022-08-22T01:59:11.388Z,90.33
2022-08-22T02:00:10.009Z,90.43
2022-08-22T02:01:10.074Z,90.19
2022-08-22T02:02:09.989Z,90.33
2022-08-22T02:03:09.989Z,90.23
2022-08-22T02:04:09.987Z,90.19
2022-08-22T02:05:09.949Z,89.62
2022-08-22T02:06:09.940Z,90.33
2022-08-22T02:07:09.927Z,89.92
2022-08-22T02:08:09.926Z,90.03
2022-08-22T02:09:09.914Z,89.62
2022-08-22T02:10:09.910Z,90.33
2022-08-22T02:11:09.885Z,90.12
2022-08-22T02:12:21.469Z,90.12
2022-08-22T02:13:10.859Z,90.63
2022-08-22T02:14:09.866Z,90.47
2022-08-22T02:15:09.842Z,90.23
2022-08-22T02:16:09.832Z,90.33
2022-08-22T02:17:09.815Z,90.33
2022-08-22T02:18:09.803Z,90.27
2022-08-22T02:19:09.820Z,90.03
2022-08-22T02:20:09.786Z,90.03
2022-08-22T02:21:09.780Z,90.23
2022-08-22T02:22:09.760Z,90.37
2022-08-22T02:23:09.748Z,91.14
2022-08-22T02:24:09.761Z,90.63
2022-08-22T02:25:09.726Z,90.53
2022-08-22T02:26:09.733Z,90.63
2022-08-22T02:27:09.704Z,90.73
2022-08-22T02:28:09.693Z,90.63
2022-08-22T02:29:09.685Z,90.33
2022-08-22T02:30:09.681Z,90.23
2022-08-22T02:31:09.675Z,89.92
2022-08-22T02:32:09.647Z,90.63
2022-08-22T02:33:09.630Z,90.88
2022-08-22T02:34:09.649Z,90.23
2022-08-22T02:35:09.610Z,90.58
2022-08-22T02:36:09.606Z,90.27
2022-08-22T02:37:09.598Z,90.63
2022-08-22T02:38:09.577Z,90.47
2022-08-22T02:39:09.619Z,90.88
2022-08-22T02:40:09.636Z,90.63
2022-08-22T02:41:09.548Z,91.08
2022-08-22T02:42:09.537Z,90.67
2022-08-22T02:43:09.524Z,90.47
2022-08-22T02:44:09.505Z,90.78
2022-08-22T02:45:09.514Z,90.37
2022-08-22T02:46:09.483Z,90.27
2022-08-22T02:47:09.477Z,90.37
2022-08-22T02:48:09.469Z,90.27
2022-08-22T02:49:09.461Z,89.97
2022-08-22T02:50:12.941Z,90.17
2022-08-22T02:51:09.438Z,89.76
2022-08-22T02:52:09.425Z,89.97
2022-08-22T02:53:09.409Z,89.56
2022-08-22T02:54:09.404Z,90.11
2022-08-22T02:55:09.399Z,90.41
2022-08-22T02:56:09.367Z,90.01
2022-08-22T02:57:14.290Z,90.41
2022-08-22T02:58:10.353Z,90.67
2022-08-22T02:59:09.343Z,90.17
2022-08-22T03:00:31.791Z,90.47
2022-08-22T03:01:10.321Z,90.31
2022-08-22T03:02:09.318Z,90.52
2022-08-22T03:03:09.292Z,90.11
2022-08-22T03:04:09.284Z,90.01
2022-08-22T03:05:09.286Z,89.91
2022-08-22T03:06:09.259Z,90.52
2022-08-22T03:07:09.241Z,89.97
2022-08-22T03:08:09.240Z,90.21
2022-08-22T03:09:09.233Z,89.91
2022-08-22T03:10:09.232Z,89.70
2022-08-22T03:11:09.202Z,89.81
2022-08-22T03:12:09.196Z,90.01
2022-08-22T03:13:09.193Z,90.37
2022-08-22T03:14:09.167Z,90.67
2022-08-22T03:15:09.175Z,90.58
2022-08-22T03:16:09.149Z,90.17
2022-08-22T03:17:09.137Z,89.76
2022-08-22T03:18:09.126Z,89.97
2022-08-22T03:19:18.396Z,90.17
2022-08-22T03:20:10.125Z,89.97
2022-08-22T03:21:09.084Z,90.17
2022-08-22T03:22:09.087Z,90.78
2022-08-22T03:23:09.075Z,90.58
2022-08-22T03:24:09.068Z,90.27
2022-08-22T03:25:09.066Z,90.27
2022-08-22T03:26:09.036Z,89.97
2022-08-22T03:27:09.025Z,90.17
2022-08-22T03:28:09.025Z,90.03
2022-08-22T03:29:09.003Z,89.72
2022-08-22T03:30:08.996Z,89.83
2022-08-22T03:31:08.972Z,89.12
2022-08-22T03:32:08.966Z,89.32
2022-08-22T03:33:08.960Z,89.32
2022-08-22T03:34:08.953Z,89.62
2022-08-22T03:35:08.946Z,89.72
2022-08-22T03:36:08.912Z,89.83
2022-08-22T03:37:08.914Z,89.52
2022-08-22T03:38:08.888Z,89.83
2022-08-22T03:39:17.500Z,89.83
2022-08-22T03:40:09.985Z,89.72
2022-08-22T03:41:08.867Z,90.23
2022-08-22T03:42:08.856Z,89.42
2022-08-22T03:43:08.836Z,88.92
2022-08-22T03:44:08.824Z,89.22
2022-08-22T03:45:08.823Z,88.61
2022-08-22T03:46:08.823Z,89.52
2022-08-22T03:47:08.787Z,89.22
2022-08-22T03:48:08.783Z,88.92
2022-08-22T03:49:08.769Z,89.01
2022-08-22T03:50:08.759Z,89.42
2022-08-22T03:51:08.776Z,89.52
2022-08-22T03:52:08.737Z,90.12
2022-08-22T03:53:15.303Z,89.68
2022-08-22T03:54:09.713Z,89.88
2022-08-22T03:55:08.699Z,89.68
2022-08-22T03:56:08.691Z,90.28
2022-08-22T03:57:08.701Z,89.37
2022-08-22T03:58:15.886Z,89.42
2022-08-22T03:59:10.125Z,88.61
2022-08-22T04:00:08.656Z,88.67
2022-08-22T04:01:08.697Z,88.77
2022-08-22T04:02:41.892Z,89.07
2022-08-22T04:03:09.628Z,88.47
2022-08-22T04:04:08.594Z,88.87
2022-08-22T04:05:09.732Z,88.21
2022-08-22T04:06:12.646Z,88.37
2022-08-22T04:07:15.591Z,88.31
2022-08-22T04:08:11.688Z,88.51
2022-08-22T04:09:08.542Z,88.37
2022-08-22T04:10:08.537Z,88.61
2022-08-22T04:11:08.525Z,88.51
2022-08-22T04:12:08.510Z,88.61
2022-08-22T04:13:08.499Z,89.01
2022-08-22T04:14:08.507Z,88.92
2022-08-22T04:15:08.480Z,88.61
2022-08-22T04:16:08.458Z,88.81
2022-08-22T04:17:08.448Z,88.31
2022-08-22T04:18:08.450Z,88.92
2022-08-22T04:19:08.433Z,89.01
2022-08-22T04:20:08.426Z,89.12
2022-08-22T04:21:08.399Z,89.01
2022-08-22T04:22:08.390Z,89.01
2022-08-22T04:23:08.381Z,89.32
2022-08-22T04:24:08.374Z,90.03
2022-08-22T04:25:08.548Z,89.72
2022-08-22T04:26:10.757Z,89.92
2022-08-22T04:27:08.334Z,89.72
2022-08-22T04:28:08.325Z,89.83
2022-08-22T04:29:08.332Z,90.12
2022-08-22T04:30:08.315Z,90.03
2022-08-22T04:31:08.287Z,90.37
2022-08-22T04:32:10.643Z,90.03
2022-08-22T04:33:09.265Z,90.27
2022-08-22T04:34:08.252Z,89.52
2022-08-22T04:35:08.263Z,89.87
2022-08-22T04:36:08.259Z,90.03
2022-08-22T04:37:08.217Z,90.03
2022-08-22T04:38:09.226Z,90.73
2022-08-22T04:39:08.200Z,90.63
2022-08-22T04:40:08.269Z,90.73
2022-08-22T04:41:08.181Z,91.03
2022-08-22T04:42:31.214Z,90.94
2022-08-22T04:43:09.154Z,90.83
2022-08-22T04:44:08.140Z,90.63
2022-08-22T04:45:08.128Z,91.58
2022-08-22T04:46:08.118Z,91.54
2022-08-22T04:47:08.116Z,91.34
2022-08-22T04:48:08.103Z,91.24
2022-08-22T04:49:08.091Z,91.38
2022-08-22T04:50:08.072Z,91.49
2022-08-22T04:51:08.062Z,90.58
2022-08-22T04:52:08.060Z,91.18
2022-08-22T04:53:08.043Z,90.63
2022-08-22T04:54:08.035Z,91.24
2022-08-22T04:55:08.015Z,91.28
2022-08-22T04:56:08.056Z,91.24
2022-08-22T04:57:08.052Z,90.83
2022-08-22T04:58:07.982Z,91.44
2022-08-22T04:59:07.973Z,91.24
2022-08-22T05:00:07.971Z,91.14
2022-08-22T05:01:07.954Z,90.73
2022-08-22T05:02:07.987Z,90.94
2022-08-22T05:03:07.923Z,91.14
2022-08-22T05:04:07.914Z,90.43
2022-08-22T05:05:13.746Z,91.24
2022-08-22T05:06:08.912Z,91.18
2022-08-22T05:07:07.877Z,91.14
2022-08-22T05:08:07.873Z,91.54
2022-08-22T05:09:07.854Z,91.64
2022-08-22T05:10:12.221Z,91.54
2022-08-22T05:11:07.850Z,91.74
2022-08-22T05:12:07.824Z,91.54
2022-08-22T05:13:07.807Z,91.64
2022-08-22T05:14:07.813Z,91.74
2022-08-22T05:15:09.740Z,91.74
2022-08-22T05:16:07.790Z,91.54
2022-08-22T05:17:07.767Z,91.54
2022-08-22T05:18:07.750Z,91.44
2022-08-22T05:19:07.742Z,91.14
2022-08-22T05:20:07.736Z,90.83
2022-08-22T05:21:07.723Z,90.73
2022-08-22T05:22:07.728Z,90.43
2022-08-22T05:23:07.692Z,90.43
2022-08-22T05:24:08.685Z,90.23
2022-08-22T05:25:07.677Z,90.33
2022-08-22T05:26:07.661Z,90.43
2022-08-22T05:27:07.670Z,89.92
2022-08-22T05:28:07.635Z,89.92
2022-08-22T05:29:07.636Z,90.28
2022-08-22T05:30:07.617Z,89.88
2022-08-22T05:31:07.605Z,89.98
2022-08-22T05:32:07.611Z,90.39
2022-08-22T05:33:07.587Z,90.63
2022-08-22T05:34:07.571Z,90.59
2022-08-22T05:35:07.569Z,91.19
2022-08-22T05:36:07.554Z,90.59
2022-08-22T05:37:08.082Z,90.55
2022-08-22T05:38:07.521Z,90.55
2022-08-22T05:39:07.510Z,90.14
2022-08-22T05:40:07.606Z,90.19
2022-08-22T05:41:07.492Z,90.24
2022-08-22T05:42:07.482Z,89.94
2022-08-22T05:43:07.487Z,89.64
2022-08-22T05:44:07.456Z,90.14
2022-08-22T05:45:11.485Z,89.23
2022-08-22T05:46:08.435Z,89.43
2022-08-22T05:47:07.445Z,88.99
2022-08-22T05:48:07.409Z,89.59
2022-08-22T05:49:07.399Z,89.19
2022-08-22T05:50:07.387Z,88.79
2022-08-22T05:51:07.373Z,88.89
2022-08-22T05:52:07.376Z,88.79
2022-08-22T05:53:07.358Z,89.19
2022-08-22T05:54:07.340Z,90.10
2022-08-22T05:55:07.328Z,89.95
2022-08-22T05:56:07.316Z,89.45
2022-08-22T05:57:08.061Z,89.75
2022-08-22T05:58:07.298Z,88.85
2022-08-22T05:59:08.180Z,88.85
2022-08-22T06:00:07.286Z,88.75
2022-08-22T06:01:07.270Z,88.75
2022-08-22T06:02:07.353Z,88.95
2022-08-22T06:03:07.232Z,89.05
2022-08-22T06:04:07.229Z,88.70
2022-08-22T06:05:11.738Z,89.05
2022-08-22T06:06:07.203Z,89.21
2022-08-22T06:07:07.205Z,89.61
2022-08-22T06:08:07.183Z,89.21
2022-08-22T06:09:07.168Z,88.86
2022-08-22T06:10:07.156Z,88.86
2022-08-22T06:11:07.148Z,88.86
2022-08-22T06:12:07.132Z,89.06
2022-08-22T06:13:11.565Z,88.46
2022-08-22T06:14:07.108Z,88.56
2022-08-22T06:15:11.948Z,88.06
2022-08-22T06:16:08.084Z,87.85
2022-08-22T06:17:07.074Z,88.16
2022-08-22T06:18:07.081Z,87.92
2022-08-22T06:19:19.104Z,88.02
2022-08-22T06:20:08.046Z,87.92
2022-08-22T06:21:07.032Z,88.02
2022-08-22T06:22:07.041Z,88.02
2022-08-22T06:23:07.013Z,87.62
2022-08-22T06:24:06.999Z,87.57
2022-08-22T06:25:06.987Z,87.98
2022-08-22T06:26:20.722Z,87.07
2022-08-22T06:27:07.983Z,87.17
2022-08-22T06:28:06.954Z,87.13
2022-08-22T06:29:06.944Z,87.07
2022-08-22T06:30:06.935Z,86.32
2022-08-22T06:31:06.913Z,86.52
2022-08-22T06:32:06.903Z,86.43
2022-08-22T06:33:06.913Z,86.63
2022-08-22T06:34:07.894Z,86.28
2022-08-22T06:35:06.880Z,85.78
2022-08-22T06:36:06.859Z,86.18
2022-08-22T06:37:06.862Z,85.88
2022-08-22T06:38:06.859Z,85.74
2022-08-22T06:39:06.828Z,85.64
2022-08-22T06:40:06.873Z,85.74
2022-08-22T06:41:06.825Z,85.94
2022-08-22T06:42:06.801Z,85.64
2022-08-22T06:43:06.780Z,85.84
2022-08-22T06:44:06.792Z,85.74
2022-08-22T06:45:06.772Z,86.40
2022-08-22T06:46:06.756Z,86.20
2022-08-22T06:47:06.738Z,85.80
2022-08-22T06:48:07.256Z,85.90
2022-08-22T06:49:06.727Z,85.70
2022-08-22T06:50:06.729Z,85.90
2022-08-22T06:51:07.691Z,85.96
2022-08-22T06:52:06.702Z,85.46
2022-08-22T06:53:06.673Z,85.66
2022-08-22T06:54:06.679Z,86.06
2022-08-22T06:55:06.655Z,85.86
2022-08-22T06:56:06.640Z,86.12
2022-08-22T06:57:06.647Z,85.46
2022-08-22T06:58:06.612Z,85.02
2022-08-22T06:59:06.623Z,86.12
2022-08-22T07:00:06.596Z,85.61
2022-08-22T07:01:15.775Z,85.68
2022-08-22T07:02:07.691Z,85.52
2022-08-22T07:03:06.575Z,85.61
2022-08-22T07:04:06.547Z,85.58
2022-08-22T07:05:06.563Z,85.68
2022-08-22T07:06:06.522Z,85.68
2022-08-22T07:07:06.518Z,84.77
2022-08-22T07:08:06.506Z,85.68
2022-08-22T07:09:06.826Z,85.47
2022-08-22T07:10:06.517Z,85.78
2022-08-22T07:11:06.476Z,85.88
2022-08-22T07:12:06.457Z,85.53
2022-08-22T07:13:06.456Z,85.94
2022-08-22T07:14:06.436Z,86.04
2022-08-22T07:15:06.448Z,86.04
2022-08-22T07:16:06.414Z,85.83
2022-08-22T07:17:06.399Z,85.44
2022-08-22T07:18:06.390Z,85.49
2022-08-22T07:19:06.379Z,85.60
2022-08-22T07:20:06.389Z,85.89
2022-08-22T07:21:06.373Z,85.49
2022-08-22T07:22:06.371Z,85.69
2022-08-22T07:23:06.361Z,84.79
2022-08-22T07:24:06.330Z,84.79
2022-08-22T07:25:06.332Z,84.39
2022-08-22T07:26:06.340Z,84.25
2022-08-22T07:27:06.302Z,84.15
2022-08-22T07:28:06.274Z,84.15
2022-08-22T07:29:10.711Z,83.95
2022-08-22T07:30:09.982Z,83.55
2022-08-22T07:31:06.241Z,83.05
2022-08-22T07:32:06.227Z,83.85
2022-08-22T07:33:25.651Z,83.75
2022-08-22T07:34:07.206Z,82.71
2022-08-22T07:35:06.190Z,81.81
2022-08-22T07:36:06.191Z,78.94
2022-08-22T07:37:06.171Z,78.80
2022-08-22T07:38:06.181Z,79.91
2022-08-22T07:39:06.149Z,78.91
2022-08-22T07:40:06.203Z,79.10
2022-08-22T07:41:06.137Z,79.50
2022-08-22T07:42:06.151Z,79.30
2022-08-22T07:43:06.121Z,78.41
2022-08-22T07:44:06.100Z,78.30
2022-08-22T07:45:06.138Z,77.97
2022-08-22T07:46:06.125Z,78.27
2022-08-22T07:47:06.069Z,78.47
2022-08-22T07:48:06.089Z,78.27
2022-08-22T07:49:09.635Z,78.36
2022-08-22T07:50:06.055Z,78.86
2022-08-22T07:51:06.025Z,79.47
2022-08-22T07:52:06.139Z,79.27
2022-08-22T07:53:05.997Z,79.83
2022-08-22T07:54:05.982Z,79.33
2022-08-22T07:55:05.975Z,79.53
2022-08-22T07:56:05.963Z,79.23
2022-08-22T07:57:05.955Z,79.33
2022-08-22T07:58:05.936Z,79.73
2022-08-22T07:59:09.910Z,77.53
2022-08-22T08:00:06.911Z,77.03
2022-08-22T08:01:05.944Z,78.63
2022-08-22T08:02:06.181Z,79.39
2022-08-22T08:03:05.909Z,78.29
2022-08-22T08:04:05.887Z,76.43
2022-08-22T08:05:05.863Z,77.13
2022-08-22T08:06:05.881Z,77.03
2022-08-22T08:07:05.887Z,76.39
2022-08-22T08:08:05.905Z,78.19
2022-08-22T08:09:05.848Z,77.89
2022-08-22T08:10:07.964Z,77.59
2022-08-22T08:11:06.809Z,77.69
2022-08-22T08:12:05.805Z,76.89
2022-08-22T08:13:05.837Z,75.35
2022-08-22T08:14:05.776Z,76.86
2022-08-22T08:15:05.774Z,76.45
2022-08-22T08:16:05.758Z,75.65
2022-08-22T08:17:05.733Z,76.76
2022-08-22T08:18:05.803Z,77.06
2022-08-22T08:19:05.696Z,76.56
2022-08-22T08:20:05.693Z,75.02
2022-08-22T08:21:05.682Z,75.05
2022-08-22T08:22:05.691Z,74.52
2022-08-22T08:23:05.749Z,73.52
2022-08-22T08:24:05.681Z,73.58
2022-08-22T08:25:05.645Z,72.42
2022-08-22T08:26:05.629Z,72.72
2022-08-22T08:27:05.625Z,72.19
2022-08-22T08:28:05.675Z,72.19
2022-08-22T08:29:05.595Z,73.19
2022-08-22T08:30:05.605Z,71.39
2022-08-22T08:31:05.568Z,70.69
2022-08-22T08:32:05.547Z,70.56
2022-08-22T08:33:24.729Z,69.56
2022-08-22T08:34:06.527Z,69.66
2022-08-22T08:35:05.532Z,69.66
2022-08-22T08:36:05.537Z,69.56
2022-08-22T08:37:05.590Z,69.43
2022-08-22T08:38:05.556Z,69.02
2022-08-22T08:39:05.469Z,66.73
2022-08-22T08:40:05.532Z,65.64
2022-08-22T08:41:05.463Z,65.53
2022-08-22T08:42:05.458Z,65.01
2022-08-22T08:43:05.506Z,64.21
2022-08-22T08:44:06.446Z,64.71
2022-08-22T08:45:05.435Z,65.91
2022-08-22T08:46:05.455Z,66.70
2022-08-22T08:47:05.435Z,67.30
2022-08-22T08:48:05.486Z,67.17
2022-08-22T08:49:06.324Z,67.17
2022-08-22T08:50:05.394Z,65.47
2022-08-22T08:51:05.394Z,65.57
2022-08-22T08:52:05.334Z,68.07
2022-08-22T08:53:05.445Z,65.67
2022-08-22T08:54:05.348Z,65.87
2022-08-22T08:55:19.791Z,65.24
2022-08-22T08:56:06.301Z,65.77
2022-08-22T08:58:06.852Z,64.15
2022-08-22T08:59:10.055Z,65.24
2022-08-22T09:00:06.281Z,63.85
2022-08-22T09:01:05.295Z,63.92
2022-08-22T09:02:05.247Z,64.12
2022-08-22T09:03:06.378Z,63.92
2022-08-22T09:04:05.262Z,63.02
2022-08-22T09:05:05.568Z,62.72
2022-08-22T09:06:05.223Z,63.29
2022-08-22T09:07:05.192Z,63.29
2022-08-22T09:08:05.435Z,64.18
2022-08-22T09:09:05.216Z,63.39
2022-08-22T09:10:05.201Z,63.36
2022-08-22T09:11:09.961Z,61.47
2022-08-22T09:12:06.117Z,63.26
2022-08-22T09:13:12.245Z,62.26
2022-08-22T09:14:06.120Z,62.26
2022-08-22T09:15:05.138Z,61.07
2022-08-22T09:16:06.099Z,62.66
2022-08-22T09:17:05.109Z,63.33
2022-08-22T09:18:05.158Z,63.43
2022-08-22T09:19:05.081Z,62.83
2022-08-22T09:20:17.755Z,61.74
2022-08-22T09:21:06.065Z,61.21
2022-08-22T09:22:05.014Z,61.51
2022-08-22T09:23:05.126Z,62.40
2022-08-22T09:24:06.008Z,62.57
2022-08-22T09:25:06.133Z,60.58
2022-08-22T09:26:05.122Z,58.90
2022-08-22T09:27:08.747Z,61.08
2022-08-22T09:28:05.000Z,60.98
2022-08-22T09:29:04.973Z,60.39
2022-08-22T09:30:04.986Z,60.88
2022-08-22T09:31:16.524Z,60.49
2022-08-22T09:32:05.930Z,59.52
2022-08-22T09:33:06.013Z,61.80
2022-08-22T09:34:05.252Z,58.73
2022-08-22T09:35:04.902Z,59.95
2022-08-22T09:36:05.139Z,61.64
2022-08-22T09:37:04.855Z,61.94
2022-08-22T09:38:04.910Z,61.11
2022-08-22T09:39:05.888Z,59.55
2022-08-22T09:40:04.888Z,58.16
2022-08-22T09:40:15.240Z,64.84
2022-08-22T09:41:04.805Z,60.35
2022-08-22T09:42:04.831Z,60.35
2022-08-22T09:43:04.896Z,61.34
2022-08-22T09:44:04.797Z,61.31
2022-08-22T09:45:04.776Z,60.31
2022-08-22T09:46:04.731Z,59.92
2022-08-22T09:47:04.702Z,59.92
2022-08-22T09:48:07.155Z,60.78
2022-08-22T09:49:05.550Z,59.49
2022-08-22T09:50:04.722Z,59.27
2022-08-22T09:51:28.766Z,60.56
2022-08-22T09:52:14.366Z,62.12
2022-08-22T09:53:05.766Z,61.42
2022-08-22T09:54:04.650Z,60.33
2022-08-22T09:55:08.156Z,59.11
2022-08-22T09:56:15.143Z,58.72
2022-08-22T09:57:05.634Z,58.88
2022-08-22T09:58:04.659Z,57.76
2022-08-22T09:59:04.656Z,58.46
2022-08-22T10:00:04.622Z,56.95
2022-08-22T10:01:04.601Z,56.02
2022-08-22T10:02:06.018Z,54.54
2022-08-22T10:03:04.548Z,56.40
2022-08-22T10:04:04.579Z,54.59
2022-08-22T10:05:04.522Z,56.04
2022-08-22T10:06:05.567Z,52.58
2022-08-22T10:07:11.190Z,54.04
2022-08-22T10:08:05.545Z,52.86
2022-08-22T10:09:04.574Z,53.12
2022-08-22T10:10:04.446Z,54.21
2022-08-22T10:11:06.542Z,55.99
2022-08-22T10:12:04.448Z,53.72
2022-08-22T10:13:04.423Z,52.93
2022-08-22T10:14:05.522Z,51.35
2022-08-22T10:15:04.427Z,50.95
2022-08-22T10:16:04.395Z,53.92
2022-08-22T10:17:04.390Z,53.42
2022-08-22T10:18:04.381Z,55.30
2022-08-22T10:19:05.204Z,56.19
2022-08-22T10:20:04.422Z,58.04
2022-08-22T10:21:04.346Z,52.53
2022-08-22T10:22:04.333Z,54.80
2022-08-22T10:23:04.332Z,54.21
2022-08-22T10:24:07.174Z,53.72
2022-08-22T10:25:04.820Z,51.94
2022-08-22T10:26:04.270Z,52.63
2022-08-22T10:27:04.286Z,52.04
2022-08-22T10:28:04.277Z,53.12
2022-08-22T10:29:04.249Z,54.61
2022-08-22T10:30:04.327Z,52.31
2022-08-22T10:31:04.257Z,51.25
2022-08-22T10:32:07.702Z,49.94
2022-08-22T10:33:05.331Z,52.41
2022-08-22T10:34:04.221Z,51.42
2022-08-22T10:35:06.243Z,50.71
2022-08-22T10:36:05.147Z,51.10
2022-08-22T10:37:04.208Z,49.60
2022-08-22T10:38:04.160Z,50.66
2022-08-22T10:39:09.506Z,51.64
2022-08-22T10:40:05.332Z,49.38
2022-08-22T10:41:05.519Z,49.28
2022-08-22T10:42:05.125Z,51.32
2022-08-22T10:43:04.125Z,50.81
2022-08-22T10:44:04.490Z,49.13
2022-08-22T10:45:04.103Z,50.90
2022-08-22T10:46:04.176Z,50.98
2022-08-22T10:47:04.058Z,48.32
2022-08-22T10:48:04.067Z,48.52
2022-08-22T10:49:05.834Z,51.57
2022-08-22T10:50:10.759Z,50.78
2022-08-22T10:51:08.817Z,48.61
2022-08-22T10:52:14.725Z,49.30
2022-08-22T10:53:05.001Z,47.73
2022-08-22T10:54:03.988Z,47.16
2022-08-22T10:55:05.720Z,45.59
2022-08-22T10:56:04.963Z,47.97
2022-08-22T10:57:03.950Z,46.89
2022-08-22T10:58:03.985Z,50.46
2022-08-22T10:59:04.041Z,48.19
2022-08-22T11:00:03.928Z,47.50
2022-08-22T11:01:41.616Z,48.81
2022-08-22T11:02:04.966Z,46.94
2022-08-22T11:03:03.894Z,46.86
2022-08-22T11:04:04.864Z,47.35
2022-08-22T11:05:03.856Z,48.86
2022-08-22T11:06:03.931Z,49.15
2022-08-22T11:07:03.844Z,48.09
2022-08-22T11:08:03.840Z,49.48
2022-08-22T11:09:03.849Z,49.37
2022-08-22T11:10:03.813Z,54.53
2022-08-22T11:11:04.051Z,51.28
2022-08-22T11:12:04.313Z,52.36
2022-08-22T11:13:03.768Z,53.75
2022-08-22T11:14:03.763Z,56.04
2022-08-22T11:15:03.883Z,52.58
2022-08-22T11:16:04.275Z,54.27
2022-08-22T11:17:27.500Z,58.02
2022-08-22T11:18:04.712Z,52.39
2022-08-22T11:19:15.011Z,51.89
2022-08-22T11:20:04.705Z,56.04
2022-08-22T11:21:03.759Z,59.31
2022-08-22T11:22:03.928Z,58.51
2022-08-22T11:23:03.660Z,55.94
2022-08-22T11:24:03.669Z,51.79
2022-08-22T11:25:04.733Z,53.77
2022-08-22T11:26:05.014Z,55.52
2022-08-22T11:27:03.696Z,52.58
2022-08-22T11:28:03.597Z,53.77
2022-08-22T11:29:13.838Z,54.17
2022-08-22T11:30:04.577Z,53.55
2022-08-22T11:31:03.644Z,52.58
2022-08-22T11:32:07.632Z,54.36
2022-08-22T11:33:03.913Z,54.36
2022-08-22T11:34:03.537Z,53.28
2022-08-22T11:35:03.585Z,52.29
2022-08-22T11:36:04.801Z,53.60
2022-08-22T11:37:03.485Z,53.99
2022-08-22T11:38:04.494Z,51.42
2022-08-22T11:39:03.506Z,52.54
2022-08-22T11:40:03.517Z,53.82
2022-08-22T11:41:03.448Z,54.61
2022-08-22T11:42:03.525Z,53.03
2022-08-22T11:43:03.494Z,54.49
2022-08-22T11:44:03.710Z,56.20
2022-08-22T11:45:03.427Z,53.92
2022-08-22T11:46:03.423Z,54.81
2022-08-22T11:47:03.386Z,55.51
2022-08-22T11:48:03.390Z,57.39
2022-08-22T11:49:03.378Z,54.22
2022-08-22T11:50:03.356Z,53.99
2022-08-22T11:51:03.355Z,55.60
2022-08-22T11:52:04.341Z,55.90
2022-08-22T11:53:04.465Z,53.82
2022-08-22T11:54:03.297Z,54.32
2022-08-22T11:55:03.287Z,53.72
2022-08-22T11:56:05.586Z,52.73
2022-08-22T11:57:03.352Z,50.58
2022-08-22T11:58:03.291Z,50.68
2022-08-22T11:59:03.241Z,54.74
2022-08-22T12:00:03.244Z,51.87
2022-08-22T12:01:03.219Z,54.35
2022-08-22T12:02:03.904Z,56.72
2022-08-22T12:03:03.247Z,57.81
2022-08-22T12:04:03.455Z,53.95
2022-08-22T12:05:03.177Z,54.54
2022-08-22T12:06:03.195Z,55.93
2022-08-22T12:07:03.168Z,58.30
2022-08-22T12:08:03.160Z,59.39
2022-08-22T12:09:03.149Z,56.13
2022-08-22T12:10:03.123Z,51.67
2022-08-22T12:11:03.129Z,52.36
2022-08-22T12:12:04.736Z,54.64
2022-08-22T12:13:03.217Z,55.83
2022-08-22T12:14:06.185Z,57.21
2022-08-22T12:15:03.182Z,52.59
2022-08-22T12:16:03.073Z,54.94
2022-08-22T12:17:03.063Z,56.02
2022-08-22T12:18:03.124Z,50.88
2022-08-22T12:19:03.038Z,51.67
2022-08-22T12:20:18.661Z,52.76
2022-08-22T12:21:04.018Z,54.57
2022-08-22T12:22:02.997Z,54.27
2022-08-22T12:23:03.244Z,51.40
2022-08-22T12:24:06.241Z,50.71
2022-08-22T12:25:03.974Z,52.39
2022-08-22T12:26:02.964Z,54.96
2022-08-22T12:27:07.808Z,56.35
2022-08-22T12:28:02.996Z,54.07
2022-08-22T12:29:02.928Z,53.88
2022-08-22T12:30:02.911Z,54.07
2022-08-22T12:31:02.917Z,54.47
2022-08-22T12:32:02.953Z,54.67
2022-08-22T12:33:02.870Z,54.57
2022-08-22T12:34:02.863Z,53.78
2022-08-22T12:35:02.869Z,51.89
2022-08-22T12:36:03.958Z,50.90
2022-08-22T12:37:02.851Z,49.52
2022-08-22T12:38:02.873Z,49.81
2022-08-22T12:39:02.810Z,54.27
2022-08-22T12:40:02.927Z,54.27
2022-08-22T12:41:02.871Z,56.35
2022-08-22T12:42:04.181Z,56.92
2022-08-22T12:43:02.780Z,54.64
2022-08-22T12:44:02.762Z,51.60
2022-08-22T12:45:03.468Z,53.65